Time;durP1;ratioP1;P1;durP2;ratioP2;P2;SDS_P1;SDS_P2;PMS_P1;PMS_P2;Temp;Humidity;BMP_temperature;BMP_pressure;BME280_temperature;BME280_humidity;BME280_pressure;Samples;Min_cycle;Max_cycle;Signal;HPM_P1;HPM_P2
2023/09/09 00:01:56;;;;;;;14.98;9.10;;;;;;;28.55;49.39;101687.03;4989906;28;20134;-36
2023/09/09 00:04:23;;;;;;;14.00;10.02;;;;;;;28.51;48.99;101686.59;4988436;28;20053;-35
2023/09/09 00:06:50;;;;;;;12.23;9.07;;;;;;;28.48;49.59;101686.97;4988299;28;20047;-36
2023/09/09 00:09:17;;;;;;;10.13;8.73;;;;;;;28.47;48.98;101684.47;4987963;28;20093;-36
2023/09/09 00:11:43;;;;;;;11.32;9.10;;;;;;;28.45;49.03;101692.00;4983541;28;20132;-36
2023/09/09 00:14:10;;;;;;;9.55;8.02;;;;;;;28.44;49.53;101696.59;4989511;28;20104;-36
2023/09/09 00:16:36;;;;;;;10.50;8.73;;;;;;;28.42;49.67;101700.56;4990446;28;20525;-36
2023/09/09 00:19:03;;;;;;;9.57;8.38;;;;;;;28.39;49.12;101707.28;4987537;28;20054;-36
2023/09/09 00:21:30;;;;;;;10.27;8.60;;;;;;;28.37;49.58;101700.34;4986986;28;20050;-36
2023/09/09 00:23:57;;;;;;;11.75;9.40;;;;;;;28.35;50.04;101696.97;4990423;28;20097;-36
2023/09/09 00:26:27;;;;;;;11.85;9.60;;;;;;;28.32;49.59;101703.66;4988692;28;20054;-36
2023/09/09 00:28:54;;;;;;;10.77;8.85;;;;;;;28.29;49.37;101707.59;4991863;28;20050;-36
2023/09/09 00:31:20;;;;;;;10.60;8.70;;;;;;;28.27;49.62;101711.59;4988533;28;20130;-35
2023/09/09 00:33:47;;;;;;;11.77;9.15;;;;;;;28.23;49.70;101710.31;4992084;28;20117;-36
2023/09/09 00:36:14;;;;;;;10.70;8.70;;;;;;;28.22;49.66;101708.63;4990250;28;20052;-36
2023/09/09 00:38:41;;;;;;;10.98;8.68;;;;;;;28.19;49.59;101703.59;4990175;28;20050;-36
2023/09/09 00:41:17;;;;;;;9.07;7.88;;;;;;;28.14;49.91;101701.47;4988032;28;20054;-36
2023/09/09 00:43:44;;;;;;;11.95;9.07;;;;;;;28.13;49.87;101705.22;4985533;28;20085;-36
2023/09/09 00:46:13;;;;;;;10.70;9.07;;;;;;;28.11;50.36;101701.03;4986571;28;20097;-36
2023/09/09 00:48:40;;;;;;;10.73;8.73;;;;;;;28.10;49.98;101702.03;4989670;28;20058;-36
2023/09/09 00:51:11;;;;;;;10.95;8.45;;;;;;;28.05;49.73;101699.91;4986430;28;20405;-36
2023/09/09 00:53:39;;;;;;;10.20;8.35;;;;;;;28.04;49.95;101704.53;4986678;28;20047;-36
2023/09/09 00:56:06;;;;;;;9.20;7.53;;;;;;;28.01;49.85;101701.34;4989806;28;20136;-36
2023/09/09 00:58:33;;;;;;;9.85;7.75;;;;;;;28.00;50.57;101705.97;4990024;28;20093;-36
2023/09/09 01:01:03;;;;;;;10.35;8.23;;;;;;;27.99;50.05;101703.47;4989770;28;20061;-36
2023/09/09 01:03:30;;;;;;;10.30;8.05;;;;;;;27.97;50.07;101708.25;4991744;28;20050;-36
2023/09/09 01:05:58;;;;;;;10.68;8.00;;;;;;;27.96;50.78;101710.13;4988601;28;20546;-36
2023/09/09 01:08:28;;;;;;;8.85;7.30;;;;;;;27.94;49.85;101700.47;4986794;28;20055;-36
2023/09/09 01:10:56;;;;;;;10.05;8.25;;;;;;;27.94;50.65;101706.78;5015647;28;20055;-36
2023/09/09 01:13:23;;;;;;;11.18;8.80;;;;;;;27.91;50.00;101699.00;4989546;28;20517;-36
2023/09/09 01:15:50;;;;;;;9.77;8.02;;;;;;;27.90;49.89;101700.03;4991635;28;20058;-36
2023/09/09 01:18:18;;;;;;;11.35;8.30;;;;;;;27.90;50.01;101704.63;4989153;28;20390;-36
2023/09/09 01:20:52;;;;;;;10.80;8.75;;;;;;;27.86;50.59;101696.03;4987824;28;20501;-36
2023/09/09 01:23:19;;;;;;;9.48;8.02;;;;;;;27.87;50.71;101694.16;4991149;28;20053;-36
2023/09/09 01:25:45;;;;;;;10.70;7.90;;;;;;;27.87;50.04;101697.72;4989850;28;20086;-36
2023/09/09 01:28:12;;;;;;;9.45;8.38;;;;;;;27.87;49.96;101689.53;4986681;28;20081;-36
2023/09/09 01:30:38;;;;;;;10.32;8.63;;;;;;;27.86;50.67;101681.53;4983425;28;20481;-36
2023/09/09 01:33:05;;;;;;;10.98;8.52;;;;;;;27.86;50.30;101687.00;4990393;28;20078;-36
2023/09/09 01:35:32;;;;;;;10.15;8.73;;;;;;;27.87;50.01;101688.69;4990823;28;20050;-36
2023/09/09 01:37:58;;;;;;;10.32;7.82;;;;;;;27.85;49.95;101685.31;4988123;28;20388;-36
2023/09/09 01:40:25;;;;;;;10.30;8.43;;;;;;;27.84;50.66;101689.94;4985971;28;20377;-36
2023/09/09 01:42:52;;;;;;;10.35;8.02;;;;;;;27.82;50.73;101681.13;4985268;28;20046;-36
2023/09/09 01:45:18;;;;;;;9.88;8.15;;;;;;;27.82;49.92;101696.59;4986628;28;20057;-36
2023/09/09 01:47:45;;;;;;;10.27;8.00;;;;;;;27.82;49.86;101694.75;4984700;28;20130;-35
2023/09/09 01:50:12;;;;;;;9.15;7.63;;;;;;;27.80;50.02;101692.19;4984771;28;20053;-36
2023/09/09 01:52:38;;;;;;;10.90;8.30;;;;;;;27.79;49.98;101693.25;4987087;28;20058;-36
2023/09/09 01:55:05;;;;;;;11.52;8.50;;;;;;;27.79;49.87;101686.97;4988329;28;20050;-35
2023/09/09 01:57:32;;;;;;;11.80;8.57;;;;;;;27.78;50.57;101688.84;4987804;28;20062;-36
2023/09/09 01:59:58;;;;;;;10.20;8.52;;;;;;;27.77;50.27;101686.31;4988160;28;20061;-36
2023/09/09 02:02:25;;;;;;;10.15;8.27;;;;;;;27.76;50.50;101681.91;4990123;28;20399;-35
2023/09/09 02:04:52;;;;;;;10.68;7.85;;;;;;;27.74;50.48;101687.56;4989229;28;20046;-36
2023/09/09 02:07:18;;;;;;;9.35;7.45;;;;;;;27.73;50.20;101687.72;4990741;28;20050;-35
2023/09/09 02:09:45;;;;;;;8.88;7.65;;;;;;;27.72;50.19;101681.44;4987201;28;20382;-35
2023/09/09 02:12:12;;;;;;;10.85;8.85;;;;;;;27.71;50.77;101679.75;4984598;28;20208;-35
2023/09/09 02:14:39;;;;;;;9.27;7.68;;;;;;;27.70;50.05;101682.66;4985809;28;20055;-35
2023/09/09 02:17:05;;;;;;;10.02;8.20;;;;;;;27.69;50.00;101686.41;5016970;28;20108;-35
2023/09/09 02:19:33;;;;;;;10.07;7.80;;;;;;;27.67;50.47;101683.06;4985410;28;20320;-35
2023/09/09 02:21:59;;;;;;;9.57;7.65;;;;;;;27.66;50.45;101678.63;4984962;28;20134;-35
2023/09/09 02:24:26;;;;;;;8.35;7.20;;;;;;;27.65;50.48;101683.25;4984535;28;20081;-36
2023/09/09 02:26:53;;;;;;;9.57;7.72;;;;;;;27.65;50.45;101674.25;4987250;28;20089;-36
2023/09/09 02:29:19;;;;;;;8.23;7.03;;;;;;;27.63;50.24;101681.78;4987431;28;20055;-36
2023/09/09 02:31:46;;;;;;;8.20;7.15;;;;;;;27.62;49.99;101678.22;4985227;28;20132;-36
2023/09/09 02:34:13;;;;;;;8.40;6.93;;;;;;;27.60;50.41;101683.00;4983621;28;20049;-36
2023/09/09 02:36:45;;;;;;;8.60;7.13;;;;;;;27.59;50.40;101677.75;4988356;28;20138;-36
2023/09/09 02:39:11;;;;;;;8.88;7.25;;;;;;;27.58;50.84;101679.66;4986239;28;20081;-36
2023/09/09 02:41:38;;;;;;;7.80;6.65;;;;;;;27.58;50.24;101676.94;4986403;28;20058;-35
2023/09/09 02:44:05;;;;;;;8.80;7.03;;;;;;;27.55;50.65;101686.31;4986208;28;20104;-36
2023/09/09 02:46:31;;;;;;;8.13;6.80;;;;;;;27.53;50.82;101676.66;4984739;28;20445;-36
2023/09/09 02:48:58;;;;;;;9.98;7.68;;;;;;;27.52;50.24;101684.00;4989110;28;20683;-37
2023/09/09 02:51:25;;;;;;;8.27;6.93;;;;;;;27.51;50.55;101684.19;4987114;28;20097;-36
2023/09/09 02:53:52;;;;;;;8.07;6.72;;;;;;;27.50;50.57;101677.91;4986782;28;20199;-36
2023/09/09 02:56:18;;;;;;;9.00;6.72;;;;;;;27.49;50.84;101678.94;4984086;28;20436;-36
2023/09/09 02:58:45;;;;;;;9.70;7.28;;;;;;;27.48;50.69;101681.84;4988369;28;20136;-36
2023/09/09 03:01:12;;;;;;;7.45;6.70;;;;;;;27.46;51.01;101682.06;4988326;28;20058;-36
2023/09/09 03:03:38;;;;;;;7.45;6.45;;;;;;;27.46;50.59;101681.22;4985821;28;20046;-37
2023/09/09 03:06:10;;;;;;;8.18;6.85;;;;;;;27.44;51.03;101681.41;4981919;28;20094;-37
2023/09/09 03:08:36;;;;;;;8.40;7.20;;;;;;;27.44;50.39;101683.28;4986327;28;20399;-37
2023/09/09 03:11:03;;;;;;;8.60;7.25;;;;;;;27.42;50.36;101678.06;4985632;28;20498;-36
2023/09/09 03:13:29;;;;;;;8.27;6.97;;;;;;;27.40;50.93;101680.13;4986616;28;20078;-36
2023/09/09 03:15:56;;;;;;;8.38;6.45;;;;;;;27.40;50.52;101682.84;4987582;28;20070;-36
2023/09/09 03:18:23;;;;;;;8.27;7.20;;;;;;;27.39;51.01;101680.31;4986653;28;20515;-36
2023/09/09 03:20:50;;;;;;;7.82;6.50;;;;;;;27.39;50.83;101674.88;4987427;28;20046;-36
2023/09/09 03:23:16;;;;;;;7.50;6.25;;;;;;;27.37;50.62;101680.50;4985080;28;20042;-36
2023/09/09 03:25:43;;;;;;;8.02;6.40;;;;;;;27.37;51.04;101677.78;4987865;28;20093;-37
2023/09/09 03:28:09;;;;;;;7.82;6.47;;;;;;;27.36;50.93;101681.53;4988775;28;20134;-36
2023/09/09 03:30:54;;;;;;;7.63;6.25;;;;;;;27.33;51.04;101676.47;5017869;28;20315;-36
2023/09/09 03:33:21;;;;;;;6.72;6.03;;;;;;;27.34;51.20;101677.31;4985993;28;20050;-36
2023/09/09 03:35:48;;;;;;;7.85;6.07;;;;;;;27.32;51.14;101674.81;4988478;28;20378;-36
2023/09/09 03:38:14;;;;;;;7.75;6.30;;;;;;;27.32;50.84;101677.53;4988191;28;20156;-36
2023/09/09 03:40:42;;;;;;;7.38;6.03;;;;;;;27.30;51.02;101671.44;4986017;28;20101;-36
2023/09/09 03:43:09;;;;;;;7.30;6.43;;;;;;;27.29;50.81;101670.56;4985775;28;20050;-36
2023/09/09 03:45:36;;;;;;;9.10;6.28;;;;;;;27.28;50.56;101673.50;4985911;28;20042;-36
2023/09/09 03:48:06;;;;;;;7.13;5.95;;;;;;;27.29;51.01;101672.47;4989014;28;20382;-36
2023/09/09 03:50:33;;;;;;;6.30;5.57;;;;;;;27.26;51.04;101668.28;4983631;28;20066;-36
2023/09/09 03:53:00;;;;;;;7.63;6.18;;;;;;;27.26;50.92;101673.72;4978696;28;20404;-36
2023/09/09 03:55:26;;;;;;;6.43;5.50;;;;;;;27.26;50.80;101672.88;4990097;28;20320;-36
2023/09/09 03:57:53;;;;;;;6.80;5.82;;;;;;;27.26;50.83;101678.31;4989067;28;20054;-36
2023/09/09 04:00:20;;;;;;;7.15;5.75;;;;;;;27.24;50.79;101681.22;4988237;28;20090;-36
2023/09/09 04:02:46;;;;;;;6.25;5.57;;;;;;;27.23;50.71;101678.72;4987592;28;20057;-36
2023/09/09 04:05:13;;;;;;;6.18;5.20;;;;;;;27.21;50.80;101684.31;4994519;28;20046;-36
2023/09/09 04:07:43;;;;;;;7.03;5.32;;;;;;;27.20;50.84;101685.38;4991572;28;20047;-36
2023/09/09 04:10:11;;;;;;;5.88;5.13;;;;;;;27.20;51.01;101687.25;4990248;28;20061;-36
2023/09/09 04:12:38;;;;;;;6.65;5.35;;;;;;;27.18;50.73;101692.06;4988233;28;20047;-36
2023/09/09 04:15:08;;;;;;;5.68;5.07;;;;;;;27.18;51.04;101694.78;4988103;28;20419;-36
2023/09/09 04:17:35;;;;;;;7.00;5.63;;;;;;;27.16;51.06;101700.41;4987914;28;20061;-36
2023/09/09 04:20:03;;;;;;;6.60;5.38;;;;;;;27.15;50.92;101697.88;4987870;28;20081;-36
2023/09/09 04:22:30;;;;;;;5.88;5.03;;;;;;;27.15;51.14;101700.59;4990324;28;20504;-36
2023/09/09 04:24:57;;;;;;;5.70;5.10;;;;;;;27.13;51.25;101702.66;4989461;28;20390;-36
2023/09/09 04:27:25;;;;;;;5.82;5.22;;;;;;;27.12;51.04;101696.38;4989313;28;20061;-36
2023/09/09 04:29:52;;;;;;;6.47;5.50;;;;;;;27.11;50.89;101688.44;4988415;28;20439;-36
2023/09/09 04:32:18;;;;;;;5.95;5.32;;;;;;;27.10;51.28;101693.03;4991024;28;20071;-36
2023/09/09 04:34:45;;;;;;;5.22;4.72;;;;;;;27.09;51.16;101696.72;4990303;28;20078;-36
2023/09/09 04:37:14;;;;;;;6.03;4.95;;;;;;;27.08;51.24;101695.91;4986860;28;20054;-36
2023/09/09 04:39:40;;;;;;;5.18;4.68;;;;;;;27.07;51.31;101694.22;4990377;28;20065;-36
2023/09/09 04:42:07;;;;;;;5.80;5.07;;;;;;;27.07;51.13;101699.66;4989718;28;20382;-36
2023/09/09 04:44:34;;;;;;;5.30;4.50;;;;;;;27.05;50.93;101704.44;4990303;28;20054;-36
2023/09/09 04:47:00;;;;;;;5.32;4.60;;;;;;;27.05;51.39;101703.59;4987864;28;20058;-36
2023/09/09 04:49:27;;;;;;;5.60;4.80;;;;;;;27.05;51.39;101714.47;4987821;28;20098;-36
2023/09/09 04:51:54;;;;;;;5.55;4.55;;;;;;;27.03;51.34;101717.41;4988767;28;20050;-36
2023/09/09 04:54:21;;;;;;;4.93;4.47;;;;;;;27.03;51.28;101716.56;4985876;28;20114;-36
2023/09/09 04:56:48;;;;;;;4.85;4.20;;;;;;;27.03;50.84;101708.41;4989701;28;20078;-36
2023/09/09 04:59:15;;;;;;;7.57;4.90;;;;;;;27.02;51.16;101709.44;4986362;28;20441;-36
2023/09/09 05:01:42;;;;;;;4.80;4.30;;;;;;;27.02;51.50;101713.00;4989034;28;20050;-36
2023/09/09 05:04:08;;;;;;;5.60;4.57;;;;;;;27.01;51.09;101714.03;4988629;28;20043;-36
2023/09/09 05:06:35;;;;;;;5.03;4.40;;;;;;;27.00;51.10;101712.34;4987870;28;20058;-36
2023/09/09 05:09:02;;;;;;;4.93;4.20;;;;;;;27.00;51.30;101708.78;5017300;28;20054;-36
2023/09/09 05:11:28;;;;;;;5.13;4.22;;;;;;;27.00;51.43;101719.66;4988279;28;20047;-36
2023/09/09 05:13:55;;;;;;;5.35;4.40;;;;;;;26.99;51.21;101713.38;4988623;28;20043;-36
2023/09/09 05:16:22;;;;;;;5.18;4.68;;;;;;;26.99;51.55;101718.00;4991963;28;20046;-36
2023/09/09 05:18:48;;;;;;;5.15;4.22;;;;;;;26.98;51.42;101719.88;4986408;28;20051;-36
2023/09/09 05:21:15;;;;;;;5.55;4.50;;;;;;;26.97;51.27;101720.88;5021162;28;20055;-36
2023/09/09 05:23:42;;;;;;;4.65;4.00;;;;;;;26.96;51.32;101721.94;4983677;28;20136;-36
2023/09/09 05:26:09;;;;;;;4.82;4.10;;;;;;;26.96;51.25;101721.94;4984794;28;20042;-36
2023/09/09 05:28:35;;;;;;;4.65;4.07;;;;;;;26.96;51.46;101723.81;4992301;28;20112;-36
2023/09/09 05:31:06;;;;;;;4.80;4.30;;;;;;;26.96;51.49;101723.81;4985309;28;20439;-36
2023/09/09 05:33:32;;;;;;;3.85;3.45;;;;;;;26.96;51.23;101729.25;4988088;28;20133;-36
2023/09/09 05:35:59;;;;;;;4.47;3.95;;;;;;;26.95;51.29;101725.69;4987287;28;20046;-36
2023/09/09 05:38:26;;;;;;;4.47;3.88;;;;;;;26.95;51.09;101722.97;4990665;28;20049;-37
2023/09/09 05:40:53;;;;;;;5.03;4.20;;;;;;;26.95;51.35;101722.13;4989459;28;20046;-37
2023/09/09 05:43:20;;;;;;;4.07;3.58;;;;;;;26.95;51.57;101716.69;4986659;28;20141;-36
2023/09/09 05:45:47;;;;;;;4.75;3.95;;;;;;;26.94;51.41;101721.28;5022097;28;20073;-37
2023/09/09 05:48:14;;;;;;;4.70;3.92;;;;;;;26.92;51.17;101717.91;4988998;28;20119;-36
2023/09/09 05:50:40;;;;;;;3.78;3.38;;;;;;;26.92;50.99;101728.78;4989002;28;20113;-37
2023/09/09 05:53:07;;;;;;;4.28;3.83;;;;;;;26.91;51.15;101724.38;4985735;28;20077;-37
2023/09/09 05:55:34;;;;;;;4.30;3.80;;;;;;;26.90;51.21;101725.44;4986292;28;20055;-37
2023/09/09 05:58:00;;;;;;;4.32;3.80;;;;;;;26.90;51.14;101725.44;4988234;28;20078;-37
2023/09/09 06:00:27;;;;;;;4.13;3.50;;;;;;;26.90;51.12;101724.59;4983372;28;20101;-37
2023/09/09 06:02:54;;;;;;;3.58;3.28;;;;;;;26.90;51.29;101733.59;4985702;28;20041;-37
2023/09/09 06:05:21;;;;;;;3.97;3.45;;;;;;;26.89;51.09;101734.59;4983796;28;20457;-37
2023/09/09 06:07:48;;;;;;;4.38;3.53;;;;;;;26.90;51.08;101738.19;4984543;28;20132;-37
2023/09/09 06:10:14;;;;;;;4.00;3.55;;;;;;;26.88;51.44;101732.91;4987905;28;20046;-37
2023/09/09 06:12:41;;;;;;;4.18;3.53;;;;;;;26.89;50.88;101748.22;4986275;28;20047;-37
2023/09/09 06:15:08;;;;;;;4.15;3.50;;;;;;;26.89;51.09;101745.47;4983477;28;20050;-36
2023/09/09 06:17:36;;;;;;;4.88;3.83;;;;;;;26.89;51.21;101747.38;4984049;28;20699;-37
2023/09/09 06:20:03;;;;;;;5.80;3.20;;;;;;;26.90;51.15;101751.78;5014460;28;20468;-37
2023/09/09 06:22:29;;;;;;;4.05;3.65;;;;;;;26.89;51.17;101756.38;4983482;28;20078;-37
2023/09/09 06:24:56;;;;;;;4.35;3.45;;;;;;;26.89;51.03;101748.22;4979875;28;20466;-37
2023/09/09 06:27:22;;;;;;;4.25;3.85;;;;;;;26.89;51.04;101759.09;4985454;28;20089;-37
2023/09/09 06:29:49;;;;;;;5.20;4.45;;;;;;;26.89;50.93;101766.41;4985643;28;20077;-37
2023/09/09 06:32:15;;;;;;;6.00;4.75;;;;;;;26.89;50.70;101766.41;4980806;28;20113;-37
2023/09/09 06:34:42;;;;;;;5.90;4.72;;;;;;;26.90;51.31;101762.69;4981319;28;20054;-37
2023/09/09 06:37:10;;;;;;;7.30;5.30;;;;;;;26.89;50.92;101767.25;4979135;28;20447;-37
2023/09/09 06:39:37;;;;;;;6.55;4.72;;;;;;;26.91;51.08;101761.63;4983515;28;20117;-37
2023/09/09 06:42:05;;;;;;;8.27;6.05;;;;;;;26.91;51.14;101773.34;4979310;28;20086;-36
2023/09/09 06:44:32;;;;;;;6.82;5.20;;;;;;;26.91;50.86;101773.34;4985503;28;20324;-36
2023/09/09 06:46:59;;;;;;;9.48;6.18;;;;;;;26.91;50.92;101776.06;4985792;28;20337;-37
2023/09/09 06:49:26;;;;;;;7.78;5.90;;;;;;;26.92;51.08;101772.31;4989638;28;20054;-36
2023/09/09 06:51:53;;;;;;;6.30;4.97;;;;;;;26.92;50.89;101772.31;4978942;28;20054;-37
2023/09/09 06:54:20;;;;;;;7.75;5.57;;;;;;;26.93;51.03;101779.44;4981256;28;20051;-36
2023/09/09 06:56:47;;;;;;;6.40;5.20;;;;;;;26.93;50.65;101775.88;4984427;28;20120;-37
2023/09/09 06:59:13;;;;;;;7.47;5.65;;;;;;;26.95;50.56;101774.66;4979743;28;20049;-36
2023/09/09 07:01:40;;;;;;;18.98;11.75;;;;;;;26.94;50.50;101783.88;4980465;28;20489;-36
2023/09/09 07:04:07;;;;;;;27.77;17.90;;;;;;;26.94;50.73;101778.44;4976779;28;20619;-37
2023/09/09 07:06:33;;;;;;;37.30;22.70;;;;;;;26.93;50.98;101784.88;4976558;28;20402;-37
2023/09/09 07:09:00;;;;;;;39.13;25.45;;;;;;;26.91;50.68;101783.41;4982419;28;20514;-37
2023/09/09 07:11:26;;;;;;;49.38;32.38;;;;;;;26.88;51.13;101791.94;4980089;28;20053;-37
2023/09/09 07:13:53;;;;;;;47.42;31.23;;;;;;;26.84;51.04;101791.47;4979055;28;20079;-37
2023/09/09 07:16:20;;;;;;;40.92;27.90;;;;;;;26.81;51.44;101790.00;4980452;28;20132;-37
2023/09/09 07:18:46;;;;;;;46.20;27.67;;;;;;;26.81;51.03;101791.84;4982099;28;20073;-37
2023/09/09 07:21:13;;;;;;;46.88;31.00;;;;;;;26.77;51.41;101785.94;4980954;28;20077;-37
2023/09/09 07:23:40;;;;;;;45.42;29.80;;;;;;;26.77;51.40;101788.66;4983856;28;20438;-36
2023/09/09 07:26:06;;;;;;;41.28;27.80;;;;;;;26.77;51.62;101798.69;4988781;28;20117;-36
2023/09/09 07:28:33;;;;;;;38.95;25.75;;;;;;;26.80;51.33;101795.59;4981693;28;20133;-37
2023/09/09 07:31:04;;;;;;;37.65;24.70;;;;;;;26.83;51.49;101801.50;4987594;28;20054;-36
2023/09/09 07:33:30;;;;;;;37.67;24.15;;;;;;;26.86;51.49;101794.84;4985329;28;20039;-36
2023/09/09 07:35:57;;;;;;;38.70;25.33;;;;;;;26.89;51.04;101793.63;4983543;28;20197;-37
2023/09/09 07:38:24;;;;;;;41.03;26.73;;;;;;;26.90;51.10;101785.28;4983558;28;20047;-36
2023/09/09 07:40:57;;;;;;;38.25;26.27;;;;;;;26.91;51.53;101789.69;4985693;28;20383;-36
2023/09/09 07:43:24;;;;;;;40.60;27.08;;;;;;;26.93;50.94;101795.75;4983584;28;20133;-37
2023/09/09 07:45:51;;;;;;;39.67;25.88;;;;;;;26.94;51.36;101792.03;4989708;28;20413;-37
2023/09/09 07:48:18;;;;;;;41.55;27.60;;;;;;;26.94;50.92;101794.75;4988642;28;20108;-37
2023/09/09 07:50:53;;;;;;;66.72;44.88;;;;;;;26.91;51.63;101803.28;4989144;28;20184;-37
2023/09/09 07:53:20;;;;;;;65.03;43.67;;;;;;;26.90;51.65;101795.31;4984990;28;20204;-36
2023/09/09 07:55:48;;;;;;;76.75;49.47;;;;;;;26.87;51.63;101801.97;4985598;28;20054;-36
2023/09/09 07:58:16;;;;;;;76.60;52.53;;;;;;;26.84;51.87;101802.34;4989431;28;20042;-36
2023/09/09 08:00:46;;;;;;;70.82;48.35;;;;;;;26.81;52.32;101798.16;4987673;28;20129;-38
2023/09/09 08:03:13;;;;;;;68.38;47.03;;;;;;;26.81;52.01;101792.72;4985517;28;20143;-38
2023/09/09 08:05:41;;;;;;;68.97;48.88;;;;;;;26.82;52.47;101801.72;4986183;28;20061;-38
2023/09/09 08:08:07;;;;;;;65.82;46.33;;;;;;;26.81;52.34;101805.44;4985353;28;20054;-38
2023/09/09 08:10:34;;;;;;;68.70;43.63;;;;;;;26.80;52.35;101804.59;5018432;28;20524;-37
2023/09/09 08:13:01;;;;;;;70.70;50.92;;;;;;;26.81;52.42;101805.44;4985331;28;20054;-37
2023/09/09 08:15:28;;;;;;;70.28;50.10;;;;;;;26.79;52.38;101808.34;4985585;28;20129;-37
2023/09/09 08:18:06;;;;;;;94.88;68.25;;;;;;;26.77;52.56;101807.69;4989836;28;20577;-37
2023/09/09 08:20:33;;;;;;;89.38;63.28;;;;;;;26.76;52.90;101813.34;4985547;28;20054;-37
2023/09/09 08:22:59;;;;;;;87.70;61.85;;;;;;;26.74;53.17;101812.69;4982282;28;20128;-36
2023/09/09 08:25:26;;;;;;;79.68;56.80;;;;;;;26.74;53.29;101818.97;4986353;28;20114;-37
2023/09/09 08:27:53;;;;;;;76.07;54.78;;;;;;;26.74;53.89;101824.41;4983923;28;20051;-36
2023/09/09 08:30:19;;;;;;;76.55;55.70;;;;;;;26.74;53.85;101810.81;4983264;28;20918;-36
2023/09/09 08:32:46;;;;;;;73.05;53.63;;;;;;;26.75;53.99;101817.94;4984149;28;20064;-36
2023/09/09 08:35:13;;;;;;;77.10;54.63;;;;;;;26.75;53.99;101812.50;4983010;28;20092;-36
2023/09/09 08:37:40;;;;;;;68.82;48.92;;;;;;;26.77;53.89;101821.28;4982218;28;20339;-36
2023/09/09 08:40:08;;;;;;;76.07;54.15;;;;;;;26.79;53.86;101821.13;4981527;28;20129;-36
2023/09/09 08:43:02;;;;;;;70.28;52.38;;;;;;;26.76;54.54;101822.31;4985268;28;20058;-36
2023/09/09 08:45:41;;;;;;;71.80;51.97;;;;;;;26.79;54.01;101835.56;4982833;28;20058;-36
2023/09/09 08:48:08;;;;;;;70.30;51.20;;;;;;;26.78;53.84;101823.00;4984422;28;20054;-36
2023/09/09 08:50:38;;;;;;;69.00;49.72;;;;;;;26.78;54.26;101831.16;4989239;28;20050;-36
2023/09/09 08:53:06;;;;;;;70.82;51.15;;;;;;;26.80;53.75;101829.09;4986068;28;20062;-36
2023/09/09 08:55:33;;;;;;;68.80;50.17;;;;;;;26.82;54.06;101826.19;4985214;28;20101;-36
2023/09/09 08:58:01;;;;;;;69.70;49.75;;;;;;;26.83;53.99;101822.44;4982526;28;20054;-36
2023/09/09 09:00:33;;;;;;;62.72;48.47;;;;;;;26.84;53.96;101821.38;4981203;28;20395;-36
2023/09/09 09:03:03;;;;;;;61.78;47.33;;;;;;;26.84;53.92;101824.09;4977765;28;20062;-36
2023/09/09 09:05:35;;;;;;;67.32;47.78;;;;;;;26.88;53.70;101822.69;4984962;28;20046;-37
2023/09/09 09:08:02;;;;;;;67.82;49.13;;;;;;;26.91;53.83;101819.63;4984711;28;20132;-37
2023/09/09 09:10:29;;;;;;;65.25;46.90;;;;;;;26.93;53.72;101830.28;4980053;28;20046;-36
2023/09/09 09:12:56;;;;;;;68.50;47.45;;;;;;;26.95;53.80;101830.97;4986103;28;20057;-36
2023/09/09 09:15:24;;;;;;;62.03;44.05;;;;;;;26.97;53.58;101834.31;4985928;28;20363;-36
2023/09/09 09:17:52;;;;;;;52.78;38.50;;;;;;;27.00;52.89;101834.78;4985070;28;20054;-36
2023/09/09 09:20:26;;;;;;;48.05;35.15;;;;;;;27.03;52.87;101834.41;4986956;28;20129;-37
2023/09/09 09:23:00;;;;;;;80.72;52.17;;;;;;;27.07;52.51;101835.72;4984834;28;20051;-36
2023/09/09 09:25:28;;;;;;;60.25;44.42;;;;;;;27.10;52.05;101837.28;4984153;28;20129;-36
2023/09/09 09:27:57;;;;;;;60.72;40.13;;;;;;;27.12;52.32;101843.34;4985044;28;20050;-36
2023/09/09 09:30:25;;;;;;;50.15;36.47;;;;;;;27.15;52.33;101842.13;4985019;28;20054;-36
2023/09/09 09:32:56;;;;;;;48.50;35.00;;;;;;;27.18;52.08;101844.47;4983705;28;20504;-36
2023/09/09 09:35:26;;;;;;;49.15;33.80;;;;;;;27.20;51.86;101839.69;4979507;28;20458;-36
2023/09/09 09:38:01;;;;;;;41.22;30.92;;;;;;;27.22;51.67;101845.78;4982189;28;20130;-36
2023/09/09 09:40:30;;;;;;;45.10;32.15;;;;;;;27.25;51.96;101840.78;4983694;28;20133;-36
2023/09/09 09:42:56;;;;;;;45.17;30.27;;;;;;;27.28;51.68;101845.00;4983951;28;20082;-36
2023/09/09 09:45:24;;;;;;;43.90;30.10;;;;;;;27.33;51.64;101845.28;4985214;28;20054;-36
2023/09/09 09:47:53;;;;;;;42.17;28.42;;;;;;;27.37;51.58;101849.31;4984738;28;20497;-36
2023/09/09 09:50:30;;;;;;;41.95;28.90;;;;;;;27.43;51.47;101844.97;4983791;28;20065;-36
2023/09/09 09:53:01;;;;;;;36.20;24.92;;;;;;;27.48;51.35;101843.34;4982417;28;20358;-36
2023/09/09 09:55:30;;;;;;;38.00;27.00;;;;;;;27.54;51.32;101847.22;4982929;28;20053;-36
2023/09/09 09:58:01;;;;;;;33.63;23.20;;;;;;;27.58;51.38;101840.34;4983820;28;20129;-36
2023/09/09 10:00:28;;;;;;;29.02;20.58;;;;;;;27.63;51.09;101845.22;4981667;28;20081;-35
2023/09/09 10:02:57;;;;;;;30.27;20.77;;;;;;;27.67;51.08;101844.63;4981651;28;20094;-36
2023/09/09 10:05:26;;;;;;;25.80;17.98;;;;;;;27.72;50.82;101844.03;4983249;28;20573;-35
2023/09/09 10:07:59;;;;;;;34.28;23.35;;;;;;;27.76;51.34;101837.19;4984660;28;20108;-36
2023/09/09 10:10:30;;;;;;;31.58;22.50;;;;;;;27.79;51.42;101834.09;4983969;28;20133;-35
2023/09/09 10:13:11;;;;;;;30.45;20.60;;;;;;;27.83;51.31;101840.81;4983584;28;20049;-36
2023/09/09 10:15:40;;;;;;;30.63;20.50;;;;;;;27.85;50.85;101841.47;4982766;28;20050;-36
2023/09/09 10:18:07;;;;;;;29.92;19.92;;;;;;;27.88;51.07;101837.50;5015623;28;20126;-36
2023/09/09 10:20:35;;;;;;;26.23;18.30;;;;;;;27.90;50.25;101832.69;4983306;28;20108;-36
2023/09/09 10:23:04;;;;;;;22.58;17.50;;;;;;;27.93;49.80;101840.50;4984548;28;20065;-36
2023/09/09 10:25:31;;;;;;;22.85;16.85;;;;;;;27.95;50.51;101839.25;4978142;28;20046;-36
2023/09/09 10:27:58;;;;;;;22.63;16.48;;;;;;;27.98;49.51;101838.00;4986794;28;20367;-37
2023/09/09 10:30:27;;;;;;;28.35;15.73;;;;;;;27.98;49.48;101836.16;4987373;28;20199;-36
2023/09/09 10:32:56;;;;;;;23.83;15.32;;;;;;;28.00;49.03;101834.06;4979558;28;20112;-36
2023/09/09 10:35:24;;;;;;;20.95;14.43;;;;;;;28.02;49.15;101834.72;4977005;28;20086;-36
2023/09/09 10:37:51;;;;;;;21.30;14.27;;;;;;;28.04;48.57;101832.63;4981926;28;20287;-36
2023/09/09 10:40:19;;;;;;;20.48;13.70;;;;;;;28.07;48.51;101833.28;4982287;28;20057;-36
2023/09/09 10:42:46;;;;;;;16.30;12.52;;;;;;;28.10;48.58;101832.88;4980788;28;20070;-37
2023/09/09 10:45:28;;;;;;;17.67;13.13;;;;;;;28.10;47.87;101841.91;4984988;28;20358;-36
2023/09/09 10:48:01;;;;;;;19.58;13.40;;;;;;;28.12;47.72;101830.81;4984557;28;20129;-36
2023/09/09 10:50:52;;;;;;;16.60;11.73;;;;;;;28.13;48.25;101829.75;4984036;28;20046;-37
2023/09/09 10:53:26;;;;;;;17.40;11.82;;;;;;;28.17;47.42;101825.59;4982474;28;20054;-37
2023/09/09 10:55:58;;;;;;;16.90;12.18;;;;;;;28.18;48.13;101825.41;4976553;28;20055;-37
2023/09/09 10:58:37;;;;;;;17.90;12.27;;;;;;;28.20;47.81;101825.22;4980702;28;20064;-36
2023/09/09 11:01:07;;;;;;;15.52;10.65;;;;;;;28.22;47.46;101820.38;4981748;28;20097;-37
2023/09/09 11:03:40;;;;;;;17.60;12.35;;;;;;;28.23;47.17;101820.22;4986834;28;20050;-37
2023/09/09 11:06:10;;;;;;;;;;;;;;;28.23;47.64;101824.81;4987349;28;20054;-36
2023/09/09 11:08:43;;;;;;;15.93;12.10;;;;;;;28.25;47.82;101823.56;4986491;28;19922;-37
2023/09/09 11:11:18;;;;;;;14.27;11.05;;;;;;;28.25;47.60;101823.56;4987434;28;21618;-37
2023/09/09 11:13:54;;;;;;;15.18;9.18;;;;;;;28.25;47.52;101833.63;4985426;28;20055;-37
2023/09/09 11:16:34;;;;;;;14.10;9.32;;;;;;;28.24;47.99;101824.63;4987777;28;20054;-37
2023/09/09 11:19:11;;;;;;;13.98;11.00;;;;;;;28.23;47.17;101819.38;4984883;28;20120;-37
2023/09/09 11:21:41;;;;;;;13.18;10.05;;;;;;;28.24;47.87;101826.50;4987447;28;20050;-37
2023/09/09 11:24:08;;;;;;;19.35;12.02;;;;;;;28.23;47.43;101822.09;4984174;28;20147;-37